Time;durP1;ratioP1;P1;durP2;ratioP2;P2;SDS_P1;SDS_P2;PMS_P1;PMS_P2;Temp;Humidity;BMP_temperature;BMP_pressure;BME280_temperature;BME280_humidity;BME280_pressure;Samples;Min_cycle;Max_cycle;Signal;HPM_P1;HPM_P2
2019/12/04 00:00:05;;;;;;;38.7;19.05;;;;;;;-2.97;69.23438;95877.66;;;;
2019/12/04 00:01:07;;;;;;;38.7;19.05;;;;;;;-2.97;69.23438;95877.66;;;;
2019/12/04 00:02:08;;;;;;;38.7;19.05;;;;;;;-2.97;69.23438;95877.66;;;;
2019/12/04 00:03:10;;;;;;;38.7;19.05;;;;;;;-2.97;69.23438;95877.66;;;;
2019/12/04 00:04:11;;;;;;;38.55;17.6;;;;;;;-3.09;69.45313;95870.4;;;;
2019/12/04 00:05:12;;;;;;;38.55;17.6;;;;;;;-3.09;69.45313;95870.4;;;;
2019/12/04 00:06:13;;;;;;;38.55;17.6;;;;;;;-3.09;69.45313;95870.4;;;;
2019/12/04 00:07:14;;;;;;;38.55;17.6;;;;;;;-3.09;69.45313;95870.4;;;;
2019/12/04 00:08:15;;;;;;;38.55;17.6;;;;;;;-3.09;69.45313;95870.4;;;;
2019/12/04 00:09:17;;;;;;;38.55;17.6;;;;;;;-3.09;69.45313;95870.4;;;;
2019/12/04 00:10:18;;;;;;;38.55;17.6;;;;;;;-3.09;69.45313;95870.4;;;;
2019/12/04 00:11:19;;;;;;;38.55;17.6;;;;;;;-3.09;69.45313;95870.4;;;;
2019/12/04 00:12:20;;;;;;;38.55;17.6;;;;;;;-3.09;69.45313;95870.4;;;;
2019/12/04 00:13:21;;;;;;;38.55;17.6;;;;;;;-3.09;69.45313;95870.4;;;;
2019/12/04 00:14:22;;;;;;;38.55;17.6;;;;;;;-3.09;69.45313;95870.4;;;;
2019/12/04 00:15:23;;;;;;;34.84999;17.7;;;;;;;-3.18;69.61426;95857.12;;;;
2019/12/04 00:16:24;;;;;;;34.84999;17.7;;;;;;;-3.18;69.61426;95857.12;;;;
2019/12/04 00:17:25;;;;;;;34.84999;17.7;;;;;;;-3.18;69.61426;95857.12;;;;
2019/12/04 00:18:26;;;;;;;34.84999;17.7;;;;;;;-3.18;69.61426;95857.12;;;;
2019/12/04 00:19:27;;;;;;;34.84999;17.7;;;;;;;-3.18;69.61426;95857.12;;;;
2019/12/04 00:20:28;;;;;;;34.84999;17.7;;;;;;;-3.18;69.61426;95857.12;;;;
2019/12/04 00:21:29;;;;;;;34.84999;17.7;;;;;;;-3.18;69.61426;95857.12;;;;
2019/12/04 00:22:31;;;;;;;34.84999;17.7;;;;;;;-3.18;69.61426;95857.12;;;;
2019/12/04 00:23:32;;;;;;;34.84999;17.7;;;;;;;-3.18;69.61426;95857.12;;;;
2019/12/04 00:24:33;;;;;;;34.84999;17.7;;;;;;;-3.18;69.61426;95857.12;;;;
2019/12/04 00:25:34;;;;;;;34;16.85;;;;;;;-3.19;69.76953;95856.8;;;;
2019/12/04 00:26:35;;;;;;;34;16.85;;;;;;;-3.19;69.76953;95856.8;;;;
2019/12/04 00:27:36;;;;;;;34;16.85;;;;;;;-3.19;69.76953;95856.8;;;;
2019/12/04 00:28:37;;;;;;;34;16.85;;;;;;;-3.19;69.76953;95856.8;;;;
2019/12/04 00:29:42;;;;;;;34;16.85;;;;;;;-3.19;69.76953;95856.8;;;;
2019/12/04 00:35:52;;;;;;;34;16.85;;;;;;;-3.19;69.76953;95856.8;;;;
2019/12/04 00:36:54;;;;;;;33.85;17.5;;;;;;;-3.26;69.88184;95854.37;;;;
2019/12/04 00:37:55;;;;;;;33.85;17.5;;;;;;;-3.26;69.88184;95854.37;;;;
2019/12/04 00:38:56;;;;;;;33.85;17.5;;;;;;;-3.26;69.88184;95854.37;;;;
2019/12/04 00:39:57;;;;;;;33.85;17.5;;;;;;;-3.26;69.88184;95854.37;;;;
2019/12/04 00:40:58;;;;;;;33.85;17.5;;;;;;;-3.26;69.88184;95854.37;;;;
2019/12/04 00:41:59;;;;;;;33.85;17.5;;;;;;;-3.26;69.88184;95854.37;;;;
2019/12/04 00:43:01;;;;;;;33.85;17.5;;;;;;;-3.26;69.88184;95854.37;;;;
2019/12/04 00:44:02;;;;;;;33.85;17.5;;;;;;;-3.26;69.88184;95854.37;;;;
2019/12/04 00:45:03;;;;;;;33.85;17.5;;;;;;;-3.26;69.88184;95854.37;;;;
2019/12/04 00:46:04;;;;;;;33.85;17.5;;;;;;;-3.26;69.88184;95854.37;;;;
2019/12/04 00:47:05;;;;;;;39.1;19.95;;;;;;;-3.33;70.08887;95827.75;;;;
2019/12/04 00:48:06;;;;;;;39.1;19.95;;;;;;;-3.33;70.08887;95827.75;;;;
2019/12/04 00:49:07;;;;;;;39.1;19.95;;;;;;;-3.33;70.08887;95827.75;;;;
2019/12/04 00:50:08;;;;;;;39.1;19.95;;;;;;;-3.33;70.08887;95827.75;;;;
2019/12/04 00:51:09;;;;;;;39.1;19.95;;;;;;;-3.33;70.08887;95827.75;;;;
2019/12/04 00:52:10;;;;;;;39.1;19.95;;;;;;;-3.33;70.08887;95827.75;;;;
2019/12/04 00:53:11;;;;;;;39.1;19.95;;;;;;;-3.33;70.08887;95827.75;;;;
2019/12/04 00:54:13;;;;;;;39.1;19.95;;;;;;;-3.33;70.08887;95827.75;;;;
2019/12/04 00:55:14;;;;;;;39.1;19.95;;;;;;;-3.33;70.08887;95827.75;;;;
2019/12/04 00:56:15;;;;;;;39.1;19.95;;;;;;;-3.33;70.08887;95827.75;;;;
2019/12/04 00:57:16;;;;;;;38.45;19;;;;;;;-3.34;70.4082;95829.97;;;;
2019/12/04 00:58:17;;;;;;;38.45;19;;;;;;;-3.34;70.4082;95829.97;;;;
2019/12/04 00:59:18;;;;;;;38.45;19;;;;;;;-3.34;70.4082;95829.97;;;;
2019/12/04 01:00:19;;;;;;;38.45;19;;;;;;;-3.34;70.4082;95829.97;;;;
2019/12/04 01:01:20;;;;;;;38.45;19;;;;;;;-3.34;70.4082;95829.97;;;;
2019/12/04 01:02:21;;;;;;;38.45;19;;;;;;;-3.34;70.4082;95829.97;;;;
2019/12/04 01:03:22;;;;;;;38.45;19;;;;;;;-3.34;70.4082;95829.97;;;;
2019/12/04 01:04:24;;;;;;;38.45;19;;;;;;;-3.34;70.4082;95829.97;;;;
2019/12/04 01:05:25;;;;;;;38.45;19;;;;;;;-3.34;70.4082;95829.97;;;;
2019/12/04 01:06:26;;;;;;;38.45;19;;;;;;;-3.34;70.4082;95829.97;;;;
2019/12/04 01:07:27;;;;;;;38.45;19;;;;;;;-3.34;70.4082;95829.97;;;;
2019/12/04 01:08:28;;;;;;;35.75;18.8;;;;;;;-3.41;70.57227;95812.6;;;;
2019/12/04 01:09:29;;;;;;;35.75;18.8;;;;;;;-3.41;70.57227;95812.6;;;;
2019/12/04 01:10:30;;;;;;;35.75;18.8;;;;;;;-3.41;70.57227;95812.6;;;;
2019/12/04 01:11:31;;;;;;;35.75;18.8;;;;;;;-3.41;70.57227;95812.6;;;;
2019/12/04 01:12:32;;;;;;;35.75;18.8;;;;;;;-3.41;70.57227;95812.6;;;;
2019/12/04 01:13:33;;;;;;;35.75;18.8;;;;;;;-3.41;70.57227;95812.6;;;;
2019/12/04 01:14:34;;;;;;;35.75;18.8;;;;;;;-3.41;70.57227;95812.6;;;;
2019/12/04 01:15:35;;;;;;;35.75;18.8;;;;;;;-3.41;70.57227;95812.6;;;;
2019/12/04 01:16:36;;;;;;;35.75;18.8;;;;;;;-3.41;70.57227;95812.6;;;;
2019/12/04 01:17:37;;;;;;;35.75;18.8;;;;;;;-3.41;70.57227;95812.6;;;;
2019/12/04 01:18:39;;;;;;;37.8;18.25;;;;;;;-3.37;70.60059;95809.14;;;;
2019/12/04 01:19:40;;;;;;;37.8;18.25;;;;;;;-3.37;70.60059;95809.14;;;;
2019/12/04 01:20:41;;;;;;;37.8;18.25;;;;;;;-3.37;70.60059;95809.14;;;;
2019/12/04 01:21:43;;;;;;;37.8;18.25;;;;;;;-3.37;70.60059;95809.14;;;;
2019/12/04 01:22:50;;;;;;;37.8;18.25;;;;;;;-3.37;70.60059;95809.14;;;;
2019/12/04 01:23:54;;;;;;;37.8;18.25;;;;;;;-3.37;70.60059;95809.14;;;;
2019/12/04 01:31:13;;;;;;;35.6;17.7;;;;;;;-3.33;70.6377;95816.3;;;;
2019/12/04 01:32:21;;;;;;;35.6;17.7;;;;;;;-3.33;70.6377;95816.3;;;;
2019/12/04 01:33:22;;;;;;;35.6;17.7;;;;;;;-3.33;70.6377;95816.3;;;;
2019/12/04 01:34:24;;;;;;;35.6;17.7;;;;;;;-3.33;70.6377;95816.3;;;;
2019/12/04 01:35:25;;;;;;;35.6;17.7;;;;;;;-3.33;70.6377;95816.3;;;;
2019/12/04 01:36:26;;;;;;;35.6;17.7;;;;;;;-3.33;70.6377;95816.3;;;;
2019/12/04 01:37:27;;;;;;;35.6;17.7;;;;;;;-3.33;70.6377;95816.3;;;;
2019/12/04 01:38:28;;;;;;;35.6;17.7;;;;;;;-3.33;70.6377;95816.3;;;;
2019/12/04 01:39:29;;;;;;;35.6;17.7;;;;;;;-3.33;70.6377;95816.3;;;;
2019/12/04 01:40:30;;;;;;;28;15.1;;;;;;;-3.29;70.8418;95806.2;;;;
2019/12/04 01:41:31;;;;;;;28;15.1;;;;;;;-3.29;70.8418;95806.2;;;;
2019/12/04 01:42:32;;;;;;;28;15.1;;;;;;;-3.29;70.8418;95806.2;;;;
2019/12/04 01:43:34;;;;;;;28;15.1;;;;;;;-3.29;70.8418;95806.2;;;;
2019/12/04 01:44:35;;;;;;;28;15.1;;;;;;;-3.29;70.8418;95806.2;;;;
2019/12/04 01:45:36;;;;;;;28;15.1;;;;;;;-3.29;70.8418;95806.2;;;;
2019/12/04 01:46:37;;;;;;;28;15.1;;;;;;;-3.29;70.8418;95806.2;;;;
2019/12/04 01:47:38;;;;;;;28;15.1;;;;;;;-3.29;70.8418;95806.2;;;;
2019/12/04 01:48:39;;;;;;;28;15.1;;;;;;;-3.29;70.8418;95806.2;;;;
2019/12/04 01:49:40;;;;;;;28;15.1;;;;;;;-3.29;70.8418;95806.2;;;;
2019/12/04 01:50:41;;;;;;;25;14.25;;;;;;;-3.25;71.36719;95804.06;;;;
2019/12/04 01:51:42;;;;;;;25;14.25;;;;;;;-3.25;71.36719;95804.06;;;;
2019/12/04 01:52:44;;;;;;;25;14.25;;;;;;;-3.25;71.36719;95804.06;;;;
2019/12/04 01:53:45;;;;;;;25;14.25;;;;;;;-3.25;71.36719;95804.06;;;;
2019/12/04 01:54:46;;;;;;;25;14.25;;;;;;;-3.25;71.36719;95804.06;;;;
2019/12/04 01:55:47;;;;;;;25;14.25;;;;;;;-3.25;71.36719;95804.06;;;;
2019/12/04 01:56:48;;;;;;;25;14.25;;;;;;;-3.25;71.36719;95804.06;;;;
2019/12/04 01:57:49;;;;;;;25;14.25;;;;;;;-3.25;71.36719;95804.06;;;;
2019/12/04 01:58:50;;;;;;;25;14.25;;;;;;;-3.25;71.36719;95804.06;;;;
2019/12/04 01:59:51;;;;;;;25;14.25;;;;;;;-3.25;71.36719;95804.06;;;;
2019/12/04 02:00:53;;;;;;;22.85;13.15;;;;;;;-3.26;71.30273;95792.33;;;;
2019/12/04 02:01:55;;;;;;;22.85;13.15;;;;;;;-3.26;71.30273;95792.33;;;;
2019/12/04 02:02:56;;;;;;;22.85;13.15;;;;;;;-3.26;71.30273;95792.33;;;;
2019/12/04 02:03:57;;;;;;;22.85;13.15;;;;;;;-3.26;71.30273;95792.33;;;;
2019/12/04 02:04:58;;;;;;;22.85;13.15;;;;;;;-3.26;71.30273;95792.33;;;;
2019/12/04 02:05:59;;;;;;;22.85;13.15;;;;;;;-3.26;71.30273;95792.33;;;;
2019/12/04 02:07:00;;;;;;;22.85;13.15;;;;;;;-3.26;71.30273;95792.33;;;;
2019/12/04 02:08:01;;;;;;;22.85;13.15;;;;;;;-3.26;71.30273;95792.33;;;;
2019/12/04 02:09:03;;;;;;;22.85;13.15;;;;;;;-3.26;71.30273;95792.33;;;;
2019/12/04 02:10:04;;;;;;;22.85;13.15;;;;;;;-3.26;71.30273;95792.33;;;;
2019/12/04 02:11:06;;;;;;;22.85;13.15;;;;;;;-3.26;71.30273;95792.33;;;;
2019/12/04 02:12:07;;;;;;;22.3;12.65;;;;;;;-3.25;71.77051;95788.7;;;;
2019/12/04 02:13:08;;;;;;;22.3;12.65;;;;;;;-3.25;71.77051;95788.7;;;;
2019/12/04 02:14:09;;;;;;;22.3;12.65;;;;;;;-3.25;71.77051;95788.7;;;;
2019/12/04 02:15:10;;;;;;;22.3;12.65;;;;;;;-3.25;71.77051;95788.7;;;;
2019/12/04 02:16:11;;;;;;;22.3;12.65;;;;;;;-3.25;71.77051;95788.7;;;;
2019/12/04 02:17:12;;;;;;;22.3;12.65;;;;;;;-3.25;71.77051;95788.7;;;;
2019/12/04 02:18:14;;;;;;;22.3;12.65;;;;;;;-3.25;71.77051;95788.7;;;;
2019/12/04 02:19:15;;;;;;;22.3;12.65;;;;;;;-3.25;71.77051;95788.7;;;;
2019/12/04 02:20:16;;;;;;;22.3;12.65;;;;;;;-3.25;71.77051;95788.7;;;;
2019/12/04 02:21:17;;;;;;;22.3;12.65;;;;;;;-3.25;71.77051;95788.7;;;;
2019/12/04 02:22:33;;;;;;;22.3;12.65;;;;;;;-3.25;71.77051;95788.7;;;;
2019/12/04 02:25:38;;;;;;;22.3;12.65;;;;;;;-3.25;71.77051;95788.7;;;;
2019/12/04 02:32:40;;;;;;;22.3;12.65;;;;;;;-3.25;71.77051;95788.7;;;;
2019/12/04 02:33:48;;;;;;;24.9;13.2;;;;;;;-3.23;71.80469;95755.08;;;;
2019/12/04 02:34:50;;;;;;;24.9;13.2;;;;;;;-3.23;71.80469;95755.08;;;;
2019/12/04 02:35:51;;;;;;;24.9;13.2;;;;;;;-3.23;71.80469;95755.08;;;;
2019/12/04 02:36:52;;;;;;;24.9;13.2;;;;;;;-3.23;71.80469;95755.08;;;;
2019/12/04 02:37:53;;;;;;;24.9;13.2;;;;;;;-3.23;71.80469;95755.08;;;;
2019/12/04 02:38:54;;;;;;;24.9;13.2;;;;;;;-3.23;71.80469;95755.08;;;;
2019/12/04 02:39:55;;;;;;;24.9;13.2;;;;;;;-3.23;71.80469;95755.08;;;;
2019/12/04 02:40:56;;;;;;;24.9;13.2;;;;;;;-3.23;71.80469;95755.08;;;;
2019/12/04 02:41:57;;;;;;;24.9;13.2;;;;;;;-3.23;71.80469;95755.08;;;;
2019/12/04 02:42:59;;;;;;;24.9;13.2;;;;;;;-3.23;71.80469;95755.08;;;;
2019/12/04 02:44:00;;;;;;;21.65;12.3;;;;;;;-3.31;72.11328;95743.08;;;;
2019/12/04 02:45:01;;;;;;;21.65;12.3;;;;;;;-3.31;72.11328;95743.08;;;;
2019/12/04 02:46:02;;;;;;;21.65;12.3;;;;;;;-3.31;72.11328;95743.08;;;;
2019/12/04 02:47:03;;;;;;;21.65;12.3;;;;;;;-3.31;72.11328;95743.08;;;;
2019/12/04 02:48:04;;;;;;;21.65;12.3;;;;;;;-3.31;72.11328;95743.08;;;;
2019/12/04 02:49:06;;;;;;;21.65;12.3;;;;;;;-3.31;72.11328;95743.08;;;;
2019/12/04 02:50:07;;;;;;;21.65;12.3;;;;;;;-3.31;72.11328;95743.08;;;;
2019/12/04 02:51:08;;;;;;;21.65;12.3;;;;;;;-3.31;72.11328;95743.08;;;;
2019/12/04 02:52:09;;;;;;;21.65;12.3;;;;;;;-3.31;72.11328;95743.08;;;;
2019/12/04 02:53:10;;;;;;;21.65;12.3;;;;;;;-3.31;72.11328;95743.08;;;;
2019/12/04 02:54:12;;;;;;;20.9;11.25;;;;;;;-3.4;72.04688;95728.9;;;;
2019/12/04 02:55:13;;;;;;;20.9;11.25;;;;;;;-3.4;72.04688;95728.9;;;;
2019/12/04 02:56:14;;;;;;;20.9;11.25;;;;;;;-3.4;72.04688;95728.9;;;;
2019/12/04 02:57:15;;;;;;;20.9;11.25;;;;;;;-3.4;72.04688;95728.9;;;;
2019/12/04 02:58:16;;;;;;;20.9;11.25;;;;;;;-3.4;72.04688;95728.9;;;;
2019/12/04 02:59:17;;;;;;;20.9;11.25;;;;;;;-3.4;72.04688;95728.9;;;;
2019/12/04 03:00:18;;;;;;;20.9;11.25;;;;;;;-3.4;72.04688;95728.9;;;;
2019/12/04 03:01:20;;;;;;;20.9;11.25;;;;;;;-3.4;72.04688;95728.9;;;;
2019/12/04 03:02:21;;;;;;;20.9;11.25;;;;;;;-3.4;72.04688;95728.9;;;;
2019/12/04 03:03:22;;;;;;;20.9;11.25;;;;;;;-3.4;72.04688;95728.9;;;;
2019/12/04 03:04:24;;;;;;;20.9;11.25;;;;;;;-3.4;72.04688;95728.9;;;;
2019/12/04 03:05:25;;;;;;;19.4;11.5;;;;;;;-3.48;72.25;95720.45;;;;
2019/12/04 03:06:26;;;;;;;19.4;11.5;;;;;;;-3.48;72.25;95720.45;;;;
2019/12/04 03:07:31;;;;;;;19.4;11.5;;;;;;;-3.48;72.25;95720.45;;;;
2019/12/04 03:09:51;;;;;;;19.4;11.5;;;;;;;-3.48;72.25;95720.45;;;;
2019/12/04 03:11:30;;;;;;;19.4;11.5;;;;;;;-3.48;72.25;95720.45;;;;
2019/12/04 03:12:32;;;;;;;19.4;11.5;;;;;;;-3.48;72.25;95720.45;;;;
2019/12/04 03:13:45;;;;;;;19.4;11.5;;;;;;;-3.48;72.25;95720.45;;;;
2019/12/04 03:14:46;;;;;;;19.4;11.5;;;;;;;-3.48;72.25;95720.45;;;;
2019/12/04 03:15:47;;;;;;;18.2;11.05;;;;;;;-3.51;72.36816;95715.94;;;;
2019/12/04 03:16:48;;;;;;;18.2;11.05;;;;;;;-3.51;72.36816;95715.94;;;;
2019/12/04 03:17:50;;;;;;;18.2;11.05;;;;;;;-3.51;72.36816;95715.94;;;;
2019/12/04 03:18:51;;;;;;;18.2;11.05;;;;;;;-3.51;72.36816;95715.94;;;;
2019/12/04 03:19:53;;;;;;;18.2;11.05;;;;;;;-3.51;72.36816;95715.94;;;;
2019/12/04 03:20:54;;;;;;;18.2;11.05;;;;;;;-3.51;72.36816;95715.94;;;;
2019/12/04 03:21:55;;;;;;;18.2;11.05;;;;;;;-3.51;72.36816;95715.94;;;;
2019/12/04 03:22:56;;;;;;;18.2;11.05;;;;;;;-3.51;72.36816;95715.94;;;;
2019/12/04 03:23:57;;;;;;;18.2;11.05;;;;;;;-3.51;72.36816;95715.94;;;;
2019/12/04 03:24:58;;;;;;;18.2;11.05;;;;;;;-3.51;72.36816;95715.94;;;;
2019/12/04 03:26:00;;;;;;;18.2;11.05;;;;;;;-3.51;72.36816;95715.94;;;;
2019/12/04 03:27:01;;;;;;;20.85;10.85;;;;;;;-3.62;72.58789;95711.22;;;;
2019/12/04 03:28:02;;;;;;;20.85;10.85;;;;;;;-3.62;72.58789;95711.22;;;;
2019/12/04 03:29:03;;;;;;;20.85;10.85;;;;;;;-3.62;72.58789;95711.22;;;;
2019/12/04 03:30:04;;;;;;;20.85;10.85;;;;;;;-3.62;72.58789;95711.22;;;;
2019/12/04 03:31:05;;;;;;;20.85;10.85;;;;;;;-3.62;72.58789;95711.22;;;;
2019/12/04 03:32:07;;;;;;;20.85;10.85;;;;;;;-3.62;72.58789;95711.22;;;;
2019/12/04 03:33:08;;;;;;;20.85;10.85;;;;;;;-3.62;72.58789;95711.22;;;;
2019/12/04 03:34:09;;;;;;;20.85;10.85;;;;;;;-3.62;72.58789;95711.22;;;;
2019/12/04 03:35:21;;;;;;;20.85;10.85;;;;;;;-3.62;72.58789;95711.22;;;;
2019/12/04 03:36:23;;;;;;;20.85;10.85;;;;;;;-3.62;72.58789;95711.22;;;;
2019/12/04 03:37:24;;;;;;;21;11.75;;;;;;;-3.75;72.80566;95705.33;;;;
2019/12/04 03:39:00;;;;;;;21;11.75;;;;;;;-3.75;72.80566;95705.33;;;;
2019/12/04 03:40:02;;;;;;;21;11.75;;;;;;;-3.75;72.80566;95705.33;;;;
2019/12/04 03:41:04;;;;;;;21;11.75;;;;;;;-3.75;72.80566;95705.33;;;;
2019/12/04 03:42:05;;;;;;;21;11.75;;;;;;;-3.75;72.80566;95705.33;;;;
2019/12/04 03:43:06;;;;;;;21;11.75;;;;;;;-3.75;72.80566;95705.33;;;;
2019/12/04 03:44:07;;;;;;;21;11.75;;;;;;;-3.75;72.80566;95705.33;;;;
2019/12/04 03:45:09;;;;;;;21;11.75;;;;;;;-3.75;72.80566;95705.33;;;;
2019/12/04 03:46:17;;;;;;;21;11.75;;;;;;;-3.75;72.80566;95705.33;;;;
2019/12/04 03:47:24;;;;;;;20.1;12;;;;;;;-3.81;72.96973;95682.61;;;;
2019/12/04 03:48:42;;;;;;;20.1;12;;;;;;;-3.81;72.96973;95682.61;;;;
2019/12/04 03:50:03;;;;;;;20.1;12;;;;;;;-3.81;72.96973;95682.61;;;;
2019/12/04 03:51:05;;;;;;;20.1;12;;;;;;;-3.81;72.96973;95682.61;;;;
2019/12/04 03:52:10;;;;;;;20.1;12;;;;;;;-3.81;72.96973;95682.61;;;;
2019/12/04 03:53:13;;;;;;;20.1;12;;;;;;;-3.81;72.96973;95682.61;;;;
2019/12/04 03:54:15;;;;;;;20.1;12;;;;;;;-3.81;72.96973;95682.61;;;;
2019/12/04 03:55:16;;;;;;;20.1;12;;;;;;;-3.81;72.96973;95682.61;;;;
2019/12/04 03:56:18;;;;;;;20.1;12;;;;;;;-3.81;72.96973;95682.61;;;;
2019/12/04 03:57:20;;;;;;;20.1;12;;;;;;;-3.81;72.96973;95682.61;;;;
2019/12/04 03:58:21;;;;;;;21.25;11.05;;;;;;;-3.76;73.1543;95683.86;;;;
2019/12/04 03:59:23;;;;;;;21.25;11.05;;;;;;;-3.76;73.1543;95683.86;;;;
2019/12/04 04:00:32;;;;;;;21.25;11.05;;;;;;;-3.76;73.1543;95683.86;;;;
2019/12/04 04:01:33;;;;;;;21.25;11.05;;;;;;;-3.76;73.1543;95683.86;;;;
2019/12/04 04:02:34;;;;;;;21.25;11.05;;;;;;;-3.76;73.1543;95683.86;;;;
2019/12/04 04:03:35;;;;;;;21.25;11.05;;;;;;;-3.76;73.1543;95683.86;;;;
2019/12/04 04:04:36;;;;;;;21.25;11.05;;;;;;;-3.76;73.1543;95683.86;;;;
2019/12/04 04:05:40;;;;;;;21.25;11.05;;;;;;;-3.76;73.1543;95683.86;;;;
2019/12/04 04:07:18;;;;;;;21.25;11.05;;;;;;;-3.76;73.1543;95683.86;;;;
2019/12/04 04:08:20;;;;;;;21.25;11.05;;;;;;;-3.76;73.1543;95683.86;;;;
2019/12/04 04:09:23;;;;;;;17.8;10.3;;;;;;;-3.79;72.91113;95674.5;;;;
2019/12/04 04:10:24;;;;;;;17.8;10.3;;;;;;;-3.79;72.91113;95674.5;;;;
2019/12/04 04:11:26;;;;;;;17.8;10.3;;;;;;;-3.79;72.91113;95674.5;;;;
2019/12/04 04:13:33;;;;;;;17.8;10.3;;;;;;;-3.79;72.91113;95674.5;;;;
2019/12/04 04:14:41;;;;;;;17.8;10.3;;;;;;;-3.79;72.91113;95674.5;;;;
2019/12/04 04:15:48;;;;;;;17.8;10.3;;;;;;;-3.79;72.91113;95674.5;;;;
2019/12/04 04:16:52;;;;;;;17.8;10.3;;;;;;;-3.79;72.91113;95674.5;;;;
2019/12/04 04:18:01;;;;;;;17.8;10.3;;;;;;;-3.79;72.91113;95674.5;;;;
2019/12/04 04:19:03;;;;;;;17.8;10.3;;;;;;;-3.79;72.91113;95674.5;;;;
2019/12/04 04:20:05;;;;;;;20.2;11.35;;;;;;;-3.88;72.78125;95659.09;;;;
2019/12/04 04:21:07;;;;;;;20.2;11.35;;;;;;;-3.88;72.78125;95659.09;;;;
2019/12/04 04:22:09;;;;;;;20.2;11.35;;;;;;;-3.88;72.78125;95659.09;;;;
2019/12/04 04:23:16;;;;;;;20.2;11.35;;;;;;;-3.88;72.78125;95659.09;;;;
2019/12/04 04:24:22;;;;;;;20.2;11.35;;;;;;;-3.88;72.78125;95659.09;;;;
2019/12/04 04:25:25;;;;;;;20.2;11.35;;;;;;;-3.88;72.78125;95659.09;;;;
2019/12/04 04:26:29;;;;;;;20.2;11.35;;;;;;;-3.88;72.78125;95659.09;;;;
2019/12/04 04:27:31;;;;;;;20.2;11.35;;;;;;;-3.88;72.78125;95659.09;;;;
2019/12/04 04:28:34;;;;;;;20.2;11.35;;;;;;;-3.88;72.78125;95659.09;;;;
2019/12/04 04:29:37;;;;;;;20.2;11.35;;;;;;;-3.88;72.78125;95659.09;;;;
2019/12/04 04:30:39;;;;;;;22.1;12.15;;;;;;;-3.95;72.98633;95645.22;;;;
2019/12/04 04:31:41;;;;;;;22.1;12.15;;;;;;;-3.95;72.98633;95645.22;;;;
2019/12/04 04:32:42;;;;;;;22.1;12.15;;;;;;;-3.95;72.98633;95645.22;;;;
2019/12/04 04:33:43;;;;;;;22.1;12.15;;;;;;;-3.95;72.98633;95645.22;;;;
2019/12/04 04:34:44;;;;;;;22.1;12.15;;;;;;;-3.95;72.98633;95645.22;;;;
2019/12/04 04:35:45;;;;;;;22.1;12.15;;;;;;;-3.95;72.98633;95645.22;;;;
2019/12/04 04:36:46;;;;;;;22.1;12.15;;;;;;;-3.95;72.98633;95645.22;;;;
2019/12/04 04:37:47;;;;;;;22.1;12.15;;;;;;;-3.95;72.98633;95645.22;;;;
2019/12/04 04:38:48;;;;;;;22.1;12.15;;;;;;;-3.95;72.98633;95645.22;;;;
2019/12/04 04:39:50;;;;;;;22.1;12.15;;;;;;;-3.95;72.98633;95645.22;;;;
2019/12/04 04:40:51;;;;;;;18.5;11.35;;;;;;;-3.98;73.06348;95639.39;;;;
2019/12/04 04:41:52;;;;;;;18.5;11.35;;;;;;;-3.98;73.06348;95639.39;;;;
2019/12/04 04:42:53;;;;;;;18.5;11.35;;;;;;;-3.98;73.06348;95639.39;;;;
2019/12/04 04:43:54;;;;;;;18.5;11.35;;;;;;;-3.98;73.06348;95639.39;;;;
2019/12/04 04:44:55;;;;;;;18.5;11.35;;;;;;;-3.98;73.06348;95639.39;;;;
2019/12/04 04:45:58;;;;;;;18.5;11.35;;;;;;;-3.98;73.06348;95639.39;;;;
2019/12/04 04:46:59;;;;;;;18.5;11.35;;;;;;;-3.98;73.06348;95639.39;;;;
2019/12/04 04:48:00;;;;;;;18.5;11.35;;;;;;;-3.98;73.06348;95639.39;;;;
2019/12/04 04:49:01;;;;;;;18.5;11.35;;;;;;;-3.98;73.06348;95639.39;;;;
2019/12/04 04:50:03;;;;;;;18.5;11.35;;;;;;;-3.98;73.06348;95639.39;;;;
2019/12/04 04:51:04;;;;;;;20.25;11.3;;;;;;;-4;73.3291;95643.97;;;;
2019/12/04 04:52:05;;;;;;;20.25;11.3;;;;;;;-4;73.3291;95643.97;;;;
2019/12/04 04:53:08;;;;;;;20.25;11.3;;;;;;;-4;73.3291;95643.97;;;;
2019/12/04 04:59:18;;;;;;;20.25;11.3;;;;;;;-4;73.3291;95643.97;;;;
2019/12/04 05:00:19;;;;;;;20.25;11.3;;;;;;;-4;73.3291;95643.97;;;;
2019/12/04 05:01:20;;;;;;;20.25;11.3;;;;;;;-4;73.3291;95643.97;;;;
2019/12/04 05:02:21;;;;;;;19.2;11.4;;;;;;;-4;73.21484;95647.92;;;;
2019/12/04 05:03:22;;;;;;;19.2;11.4;;;;;;;-4;73.21484;95647.92;;;;
2019/12/04 05:04:23;;;;;;;19.2;11.4;;;;;;;-4;73.21484;95647.92;;;;
2019/12/04 05:05:24;;;;;;;19.2;11.4;;;;;;;-4;73.21484;95647.92;;;;
2019/12/04 05:06:25;;;;;;;19.2;11.4;;;;;;;-4;73.21484;95647.92;;;;
2019/12/04 05:07:27;;;;;;;19.2;11.4;;;;;;;-4;73.21484;95647.92;;;;
2019/12/04 05:08:28;;;;;;;19.2;11.4;;;;;;;-4;73.21484;95647.92;;;;
2019/12/04 05:09:29;;;;;;;19.2;11.4;;;;;;;-4;73.21484;95647.92;;;;
2019/12/04 05:10:30;;;;;;;19.2;11.4;;;;;;;-4;73.21484;95647.92;;;;
2019/12/04 05:11:31;;;;;;;19.2;11.4;;;;;;;-4;73.21484;95647.92;;;;
2019/12/04 05:12:32;;;;;;;21.15;11.45;;;;;;;-4.02;73.26465;95655.98;;;;
2019/12/04 05:13:33;;;;;;;21.15;11.45;;;;;;;-4.02;73.26465;95655.98;;;;
2019/12/04 05:14:34;;;;;;;21.15;11.45;;;;;;;-4.02;73.26465;95655.98;;;;
2019/12/04 05:15:35;;;;;;;21.15;11.45;;;;;;;-4.02;73.26465;95655.98;;;;
2019/12/04 05:16:36;;;;;;;21.15;11.45;;;;;;;-4.02;73.26465;95655.98;;;;
2019/12/04 05:17:37;;;;;;;21.15;11.45;;;;;;;-4.02;73.26465;95655.98;;;;
2019/12/04 05:18:39;;;;;;;21.15;11.45;;;;;;;-4.02;73.26465;95655.98;;;;
2019/12/04 05:19:40;;;;;;;21.15;11.45;;;;;;;-4.02;73.26465;95655.98;;;;
2019/12/04 05:20:55;;;;;;;21.15;11.45;;;;;;;-4.02;73.26465;95655.98;;;;
2019/12/04 05:21:58;;;;;;;21.15;11.45;;;;;;;-4.02;73.26465;95655.98;;;;
2019/12/04 05:23:00;;;;;;;18.15;11;;;;;;;-4.04;73.28125;95643;;;;
2019/12/04 05:24:04;;;;;;;18.15;11;;;;;;;-4.04;73.28125;95643;;;;
2019/12/04 05:25:06;;;;;;;18.15;11;;;;;;;-4.04;73.28125;95643;;;;
2019/12/04 05:26:08;;;;;;;18.15;11;;;;;;;-4.04;73.28125;95643;;;;
2019/12/04 05:27:09;;;;;;;18.15;11;;;;;;;-4.04;73.28125;95643;;;;
2019/12/04 05:28:10;;;;;;;18.15;11;;;;;;;-4.04;73.28125;95643;;;;
2019/12/04 05:29:11;;;;;;;18.15;11;;;;;;;-4.04;73.28125;95643;;;;
2019/12/04 05:30:12;;;;;;;18.15;11;;;;;;;-4.04;73.28125;95643;;;;
2019/12/04 05:31:13;;;;;;;18.15;11;;;;;;;-4.04;73.28125;95643;;;;
2019/12/04 05:32:15;;;;;;;18.15;11;;;;;;;-4.04;73.28125;95643;;;;
2019/12/04 05:33:16;;;;;;;18.15;11;;;;;;;-4.04;73.28125;95643;;;;
2019/12/04 05:34:17;;;;;;;20.35;12.05;;;;;;;-4.12;73.35059;95644.2;;;;
2019/12/04 05:35:18;;;;;;;20.35;12.05;;;;;;;-4.12;73.35059;95644.2;;;;
2019/12/04 05:36:19;;;;;;;20.35;12.05;;;;;;;-4.12;73.35059;95644.2;;;;
2019/12/04 05:37:20;;;;;;;20.35;12.05;;;;;;;-4.12;73.35059;95644.2;;;;
2019/12/04 05:38:21;;;;;;;20.35;12.05;;;;;;;-4.12;73.35059;95644.2;;;;
2019/12/04 05:39:22;;;;;;;20.35;12.05;;;;;;;-4.12;73.35059;95644.2;;;;
2019/12/04 05:40:23;;;;;;;20.35;12.05;;;;;;;-4.12;73.35059;95644.2;;;;
2019/12/04 05:41:24;;;;;;;20.35;12.05;;;;;;;-4.12;73.35059;95644.2;;;;
2019/12/04 05:42:25;;;;;;;20.35;12.05;;;;;;;-4.12;73.35059;95644.2;;;;
2019/12/04 05:43:27;;;;;;;20.35;12.05;;;;;;;-4.12;73.35059;95644.2;;;;
2019/12/04 05:44:28;;;;;;;20.55;11.2;;;;;;;-4.27;73.54102;95640.71;;;;
2019/12/04 05:45:29;;;;;;;20.55;11.2;;;;;;;-4.27;73.54102;95640.71;;;;
2019/12/04 05:46:30;;;;;;;20.55;11.2;;;;;;;-4.27;73.54102;95640.71;;;;
2019/12/04 05:47:31;;;;;;;20.55;11.2;;;;;;;-4.27;73.54102;95640.71;;;;
2019/12/04 05:48:32;;;;;;;20.55;11.2;;;;;;;-4.27;73.54102;95640.71;;;;
2019/12/04 05:49:33;;;;;;;20.55;11.2;;;;;;;-4.27;73.54102;95640.71;;;;
2019/12/04 05:50:34;;;;;;;20.55;11.2;;;;;;;-4.27;73.54102;95640.71;;;;
2019/12/04 05:51:35;;;;;;;20.55;11.2;;;;;;;-4.27;73.54102;95640.71;;;;
2019/12/04 05:52:37;;;;;;;20.55;11.2;;;;;;;-4.27;73.54102;95640.71;;;;
2019/12/04 05:53:38;;;;;;;20.55;11.2;;;;;;;-4.27;73.54102;95640.71;;;;
2019/12/04 05:54:39;;;;;;;20.95;11.9;;;;;;;-4.3;73.7002;95637.05;;;;
2019/12/04 05:55:40;;;;;;;20.95;11.9;;;;;;;-4.3;73.7002;95637.05;;;;
2019/12/04 05:56:41;;;;;;;20.95;11.9;;;;;;;-4.3;73.7002;95637.05;;;;
2019/12/04 05:57:42;;;;;;;20.95;11.9;;;;;;;-4.3;73.7002;95637.05;;;;
2019/12/04 05:58:43;;;;;;;20.95;11.9;;;;;;;-4.3;73.7002;95637.05;;;;
2019/12/04 05:59:44;;;;;;;20.95;11.9;;;;;;;-4.3;73.7002;95637.05;;;;
2019/12/04 06:00:45;;;;;;;20.95;11.9;;;;;;;-4.3;73.7002;95637.05;;;;
2019/12/04 06:01:46;;;;;;;20.95;11.9;;;;;;;-4.3;73.7002;95637.05;;;;
2019/12/04 06:02:47;;;;;;;20.95;11.9;;;;;;;-4.3;73.7002;95637.05;;;;
2019/12/04 06:03:49;;;;;;;20.95;11.9;;;;;;;-4.3;73.7002;95637.05;;;;
2019/12/04 06:04:50;;;;;;;20.95;11.9;;;;;;;-4.3;73.7002;95637.05;;;;
2019/12/04 06:05:51;;;;;;;21.15;11.6;;;;;;;-4.4;73.66309;95629.6;;;;
2019/12/04 06:06:52;;;;;;;21.15;11.6;;;;;;;-4.4;73.66309;95629.6;;;;
2019/12/04 06:07:53;;;;;;;21.15;11.6;;;;;;;-4.4;73.66309;95629.6;;;;
2019/12/04 06:08:54;;;;;;;21.15;11.6;;;;;;;-4.4;73.66309;95629.6;;;;
2019/12/04 06:09:55;;;;;;;21.15;11.6;;;;;;;-4.4;73.66309;95629.6;;;;
2019/12/04 06:11:02;;;;;;;21.15;11.6;;;;;;;-4.4;73.66309;95629.6;;;;
2019/12/04 06:12:17;;;;;;;21.15;11.6;;;;;;;-4.4;73.66309;95629.6;;;;
2019/12/04 06:13:22;;;;;;;21.15;11.6;;;;;;;-4.4;73.66309;95629.6;;;;
2019/12/04 06:14:34;;;;;;;21.15;11.6;;;;;;;-4.4;73.66309;95629.6;;;;
2019/12/04 06:15:35;;;;;;;21.15;11.6;;;;;;;-4.4;73.66309;95629.6;;;;
2019/12/04 06:16:48;;;;;;;19.95;11.35;;;;;;;-4.49;73.88574;95626.46;;;;
2019/12/04 06:17:50;;;;;;;19.95;11.35;;;;;;;-4.49;73.88574;95626.46;;;;
2019/12/04 06:18:52;;;;;;;19.95;11.35;;;;;;;-4.49;73.88574;95626.46;;;;